sensor_id;sensor_type;location;lat;lon;timestamp;P1;durP1;ratioP1;P2;durP2;ratioP2
15287;SDS011;7745;48.708;9.026;2022-07-03T00:01:54;2.37;;;1.50;;
15287;SDS011;7745;48.708;9.026;2022-07-03T00:04:20;1.63;;;1.40;;
15287;SDS011;7745;48.708;9.026;2022-07-03T00:06:49;2.20;;;1.70;;
15287;SDS011;7745;48.708;9.026;2022-07-03T00:09:18;1.90;;;1.60;;
15287;SDS011;7745;48.708;9.026;2022-07-03T00:11:45;1.30;;;1.20;;
15287;SDS011;7745;48.708;9.026;2022-07-03T00:14:12;4.13;;;1.70;;
15287;SDS011;7745;48.708;9.026;2022-07-03T00:16:39;6.00;;;1.60;;
15287;SDS011;7745;48.708;9.026;2022-07-03T00:19:06;2.20;;;1.60;;
15287;SDS011;7745;48.708;9.026;2022-07-03T00:21:34;2.60;;;1.60;;
15287;SDS011;7745;48.708;9.026;2022-07-03T00:24:08;1.83;;;1.70;;
15287;SDS011;7745;48.708;9.026;2022-07-03T00:26:41;3.40;;;1.70;;
15287;SDS011;7745;48.708;9.026;2022-07-03T00:29:11;1.90;;;1.60;;
15287;SDS011;7745;48.708;9.026;2022-07-03T00:31:40;1.90;;;1.80;;
15287;SDS011;7745;48.708;9.026;2022-07-03T00:34:08;2.97;;;1.90;;
15287;SDS011;7745;48.708;9.026;2022-07-03T00:36:39;2.53;;;1.93;;
15287;SDS011;7745;48.708;9.026;2022-07-03T00:39:08;3.27;;;1.67;;
15287;SDS011;7745;48.708;9.026;2022-07-03T00:41:35;2.23;;;1.73;;
15287;SDS011;7745;48.708;9.026;2022-07-03T00:44:02;2.37;;;1.70;;
15287;SDS011;7745;48.708;9.026;2022-07-03T00:46:30;3.63;;;1.80;;
15287;SDS011;7745;48.708;9.026;2022-07-03T00:48:57;2.10;;;1.90;;
15287;SDS011;7745;48.708;9.026;2022-07-03T00:51:25;3.13;;;1.90;;
15287;SDS011;7745;48.708;9.026;2022-07-03T00:53:53;3.10;;;1.93;;
15287;SDS011;7745;48.708;9.026;2022-07-03T00:56:24;2.80;;;2.03;;
15287;SDS011;7745;48.708;9.026;2022-07-03T00:58:55;2.87;;;1.80;;
15287;SDS011;7745;48.708;9.026;2022-07-03T01:01:24;2.50;;;2.30;;
15287;SDS011;7745;48.708;9.026;2022-07-03T01:03:57;1.77;;;1.67;;
15287;SDS011;7745;48.708;9.026;2022-07-03T01:06:35;3.17;;;1.83;;
15287;SDS011;7745;48.708;9.026;2022-07-03T01:09:07;1.87;;;1.70;;
15287;SDS011;7745;48.708;9.026;2022-07-03T01:11:37;4.67;;;1.80;;
15287;SDS011;7745;48.708;9.026;2022-07-03T01:14:14;2.97;;;1.77;;
15287;SDS011;7745;48.708;9.026;2022-07-03T01:16:48;2.83;;;1.83;;
15287;SDS011;7745;48.708;9.026;2022-07-03T01:19:26;2.20;;;1.90;;
15287;SDS011;7745;48.708;9.026;2022-07-03T01:22:03;3.40;;;2.10;;
15287;SDS011;7745;48.708;9.026;2022-07-03T01:24:53;3.10;;;1.80;;
15287;SDS011;7745;48.708;9.026;2022-07-03T01:27:34;2.17;;;1.97;;
15287;SDS011;7745;48.708;9.026;2022-07-03T01:30:08;2.70;;;2.00;;
15287;SDS011;7745;48.708;9.026;2022-07-03T01:32:38;1.90;;;1.73;;
15287;SDS011;7745;48.708;9.026;2022-07-03T01:35:08;2.40;;;1.93;;
15287;SDS011;7745;48.708;9.026;2022-07-03T01:37:38;2.20;;;1.70;;
15287;SDS011;7745;48.708;9.026;2022-07-03T01:40:06;6.17;;;2.23;;
15287;SDS011;7745;48.708;9.026;2022-07-03T01:42:36;3.57;;;2.10;;
15287;SDS011;7745;48.708;9.026;2022-07-03T01:45:05;3.30;;;2.20;;
15287;SDS011;7745;48.708;9.026;2022-07-03T01:47:35;3.03;;;2.10;;
15287;SDS011;7745;48.708;9.026;2022-07-03T01:50:06;6.63;;;1.90;;
15287;SDS011;7745;48.708;9.026;2022-07-03T01:52:36;2.07;;;1.97;;
15287;SDS011;7745;48.708;9.026;2022-07-03T01:55:06;2.10;;;1.90;;
15287;SDS011;7745;48.708;9.026;2022-07-03T01:57:37;2.20;;;2.00;;
15287;SDS011;7745;48.708;9.026;2022-07-03T02:00:08;2.27;;;2.07;;
15287;SDS011;7745;48.708;9.026;2022-07-03T02:02:37;2.70;;;1.70;;
15287;SDS011;7745;48.708;9.026;2022-07-03T02:05:10;5.17;;;1.90;;
15287;SDS011;7745;48.708;9.026;2022-07-03T02:07:49;3.00;;;1.90;;
15287;SDS011;7745;48.708;9.026;2022-07-03T02:10:24;3.70;;;2.10;;
15287;SDS011;7745;48.708;9.026;2022-07-03T02:12:57;2.60;;;1.90;;
15287;SDS011;7745;48.708;9.026;2022-07-03T02:15:28;3.73;;;1.60;;
15287;SDS011;7745;48.708;9.026;2022-07-03T02:17:56;3.00;;;1.63;;
15287;SDS011;7745;48.708;9.026;2022-07-03T02:20:24;2.33;;;2.07;;
15287;SDS011;7745;48.708;9.026;2022-07-03T02:22:52;2.37;;;1.80;;
15287;SDS011;7745;48.708;9.026;2022-07-03T02:25:23;2.47;;;1.80;;
15287;SDS011;7745;48.708;9.026;2022-07-03T02:27:53;2.07;;;1.87;;
15287;SDS011;7745;48.708;9.026;2022-07-03T02:30:27;2.33;;;1.60;;
15287;SDS011;7745;48.708;9.026;2022-07-03T02:32:56;2.43;;;2.23;;
15287;SDS011;7745;48.708;9.026;2022-07-03T02:35:25;2.70;;;1.83;;
15287;SDS011;7745;48.708;9.026;2022-07-03T02:37:56;3.10;;;2.10;;
15287;SDS011;7745;48.708;9.026;2022-07-03T02:40:31;2.43;;;2.00;;
15287;SDS011;7745;48.708;9.026;2022-07-03T02:43:08;3.60;;;1.87;;
15287;SDS011;7745;48.708;9.026;2022-07-03T02:45:43;3.33;;;1.80;;
15287;SDS011;7745;48.708;9.026;2022-07-03T02:48:16;2.40;;;1.70;;
15287;SDS011;7745;48.708;9.026;2022-07-03T02:50:50;2.30;;;2.10;;
15287;SDS011;7745;48.708;9.026;2022-07-03T02:53:24;3.10;;;2.10;;
15287;SDS011;7745;48.708;9.026;2022-07-03T02:55:58;2.77;;;1.80;;
15287;SDS011;7745;48.708;9.026;2022-07-03T02:58:52;2.20;;;2.00;;
15287;SDS011;7745;48.708;9.026;2022-07-03T03:01:30;4.10;;;2.13;;
15287;SDS011;7745;48.708;9.026;2022-07-03T03:04:09;2.67;;;2.00;;
15287;SDS011;7745;48.708;9.026;2022-07-03T03:06:41;2.43;;;2.07;;
15287;SDS011;7745;48.708;9.026;2022-07-03T03:09:14;6.40;;;2.37;;
15287;SDS011;7745;48.708;9.026;2022-07-03T03:11:51;3.40;;;2.30;;
15287;SDS011;7745;48.708;9.026;2022-07-03T03:14:23;2.27;;;2.13;;
15287;SDS011;7745;48.708;9.026;2022-07-03T03:16:58;3.63;;;2.10;;
15287;SDS011;7745;48.708;9.026;2022-07-03T03:19:27;2.87;;;2.57;;
15287;SDS011;7745;48.708;9.026;2022-07-03T03:21:56;2.70;;;2.20;;
15287;SDS011;7745;48.708;9.026;2022-07-03T03:24:29;2.27;;;2.07;;
15287;SDS011;7745;48.708;9.026;2022-07-03T03:26:57;2.43;;;2.23;;
15287;SDS011;7745;48.708;9.026;2022-07-03T03:29:25;2.50;;;2.30;;
15287;SDS011;7745;48.708;9.026;2022-07-03T03:31:53;2.50;;;2.00;;
15287;SDS011;7745;48.708;9.026;2022-07-03T03:34:20;4.87;;;2.30;;
15287;SDS011;7745;48.708;9.026;2022-07-03T03:36:48;2.30;;;2.00;;
15287;SDS011;7745;48.708;9.026;2022-07-03T03:39:15;3.73;;;2.23;;
15287;SDS011;7745;48.708;9.026;2022-07-03T03:41:42;3.07;;;2.00;;
15287;SDS011;7745;48.708;9.026;2022-07-03T03:44:09;2.57;;;2.27;;
15287;SDS011;7745;48.708;9.026;2022-07-03T03:46:38;3.37;;;2.30;;
15287;SDS011;7745;48.708;9.026;2022-07-03T03:49:05;2.33;;;2.00;;
15287;SDS011;7745;48.708;9.026;2022-07-03T03:51:32;3.37;;;1.73;;
15287;SDS011;7745;48.708;9.026;2022-07-03T03:53:58;2.67;;;1.93;;
15287;SDS011;7745;48.708;9.026;2022-07-03T03:56:28;2.00;;;1.90;;
15287;SDS011;7745;48.708;9.026;2022-07-03T03:58:55;2.67;;;2.13;;
15287;SDS011;7745;48.708;9.026;2022-07-03T04:01:22;2.60;;;2.23;;
15287;SDS011;7745;48.708;9.026;2022-07-03T04:03:50;2.40;;;2.20;;
15287;SDS011;7745;48.708;9.026;2022-07-03T04:06:18;2.13;;;1.93;;
15287;SDS011;7745;48.708;9.026;2022-07-03T04:08:45;2.87;;;2.00;;
15287;SDS011;7745;48.708;9.026;2022-07-03T04:11:12;2.33;;;2.13;;
15287;SDS011;7745;48.708;9.026;2022-07-03T04:13:39;3.47;;;2.10;;
15287;SDS011;7745;48.708;9.026;2022-07-03T04:16:05;2.30;;;2.10;;
15287;SDS011;7745;48.708;9.026;2022-07-03T04:18:32;2.17;;;1.97;;
15287;SDS011;7745;48.708;9.026;2022-07-03T04:21:01;2.70;;;1.80;;
15287;SDS011;7745;48.708;9.026;2022-07-03T04:23:28;1.87;;;1.73;;
15287;SDS011;7745;48.708;9.026;2022-07-03T04:25:55;3.00;;;2.57;;
15287;SDS011;7745;48.708;9.026;2022-07-03T04:28:28;4.27;;;2.30;;
15287;SDS011;7745;48.708;9.026;2022-07-03T04:30:54;3.10;;;2.40;;
15287;SDS011;7745;48.708;9.026;2022-07-03T04:33:21;2.87;;;2.30;;
15287;SDS011;7745;48.708;9.026;2022-07-03T04:35:48;2.87;;;2.20;;
15287;SDS011;7745;48.708;9.026;2022-07-03T04:38:16;2.40;;;2.20;;
15287;SDS011;7745;48.708;9.026;2022-07-03T04:40:43;3.13;;;2.27;;
15287;SDS011;7745;48.708;9.026;2022-07-03T04:43:11;2.93;;;2.27;;
15287;SDS011;7745;48.708;9.026;2022-07-03T04:45:38;2.77;;;2.30;;
15287;SDS011;7745;48.708;9.026;2022-07-03T04:48:05;3.93;;;2.60;;
15287;SDS011;7745;48.708;9.026;2022-07-03T04:50:32;3.43;;;2.00;;
15287;SDS011;7745;48.708;9.026;2022-07-03T04:52:59;2.80;;;2.00;;
15287;SDS011;7745;48.708;9.026;2022-07-03T04:55:27;4.27;;;2.40;;
15287;SDS011;7745;48.708;9.026;2022-07-03T04:57:53;2.77;;;2.23;;
15287;SDS011;7745;48.708;9.026;2022-07-03T05:00:20;2.20;;;2.00;;
15287;SDS011;7745;48.708;9.026;2022-07-03T05:02:47;4.53;;;2.07;;
15287;SDS011;7745;48.708;9.026;2022-07-03T05:05:14;2.43;;;2.20;;
15287;SDS011;7745;48.708;9.026;2022-07-03T05:07:41;3.20;;;2.10;;
15287;SDS011;7745;48.708;9.026;2022-07-03T05:10:08;5.40;;;2.33;;
15287;SDS011;7745;48.708;9.026;2022-07-03T05:12:36;3.30;;;2.10;;
15287;SDS011;7745;48.708;9.026;2022-07-03T05:15:03;4.23;;;2.10;;
15287;SDS011;7745;48.708;9.026;2022-07-03T05:17:30;3.30;;;2.00;;
15287;SDS011;7745;48.708;9.026;2022-07-03T05:19:57;2.10;;;2.00;;
15287;SDS011;7745;48.708;9.026;2022-07-03T05:22:38;2.63;;;2.10;;
15287;SDS011;7745;48.708;9.026;2022-07-03T05:25:06;2.30;;;2.03;;
15287;SDS011;7745;48.708;9.026;2022-07-03T05:27:36;2.00;;;1.80;;
15287;SDS011;7745;48.708;9.026;2022-07-03T05:30:03;1.97;;;1.80;;
15287;SDS011;7745;48.708;9.026;2022-07-03T05:32:31;3.87;;;1.80;;
15287;SDS011;7745;48.708;9.026;2022-07-03T05:34:58;3.73;;;2.10;;
15287;SDS011;7745;48.708;9.026;2022-07-03T05:37:25;2.17;;;2.07;;
15287;SDS011;7745;48.708;9.026;2022-07-03T05:39:52;2.50;;;1.80;;
15287;SDS011;7745;48.708;9.026;2022-07-03T05:42:18;2.00;;;1.80;;
15287;SDS011;7745;48.708;9.026;2022-07-03T05:44:46;2.37;;;1.70;;
15287;SDS011;7745;48.708;9.026;2022-07-03T05:47:13;3.23;;;1.90;;
15287;SDS011;7745;48.708;9.026;2022-07-03T05:49:40;4.13;;;1.80;;
15287;SDS011;7745;48.708;9.026;2022-07-03T05:52:07;2.13;;;1.93;;
15287;SDS011;7745;48.708;9.026;2022-07-03T05:54:34;2.90;;;1.80;;
15287;SDS011;7745;48.708;9.026;2022-07-03T05:57:00;3.73;;;1.80;;
15287;SDS011;7745;48.708;9.026;2022-07-03T05:59:28;2.80;;;1.77;;
15287;SDS011;7745;48.708;9.026;2022-07-03T06:01:56;4.47;;;2.00;;
15287;SDS011;7745;48.708;9.026;2022-07-03T06:04:23;2.43;;;1.53;;
15287;SDS011;7745;48.708;9.026;2022-07-03T06:06:50;2.90;;;1.50;;
15287;SDS011;7745;48.708;9.026;2022-07-03T06:09:16;3.17;;;1.40;;
15287;SDS011;7745;48.708;9.026;2022-07-03T06:11:44;1.60;;;1.50;;
15287;SDS011;7745;48.708;9.026;2022-07-03T06:14:12;1.57;;;1.47;;
15287;SDS011;7745;48.708;9.026;2022-07-03T06:16:39;2.03;;;1.30;;
15287;SDS011;7745;48.708;9.026;2022-07-03T06:19:08;1.43;;;1.23;;
15287;SDS011;7745;48.708;9.026;2022-07-03T06:21:34;1.33;;;1.23;;
15287;SDS011;7745;48.708;9.026;2022-07-03T06:24:01;3.23;;;1.53;;
15287;SDS011;7745;48.708;9.026;2022-07-03T06:26:28;6.63;;;1.70;;
15287;SDS011;7745;48.708;9.026;2022-07-03T06:28:55;1.50;;;1.40;;
15287;SDS011;7745;48.708;9.026;2022-07-03T06:31:22;3.43;;;1.43;;
15287;SDS011;7745;48.708;9.026;2022-07-03T06:33:49;2.63;;;1.50;;
15287;SDS011;7745;48.708;9.026;2022-07-03T06:36:17;2.33;;;1.38;;
15287;SDS011;7745;48.708;9.026;2022-07-03T06:38:44;2.87;;;1.17;;
15287;SDS011;7745;48.708;9.026;2022-07-03T06:41:11;2.70;;;1.10;;
15287;SDS011;7745;48.708;9.026;2022-07-03T06:43:38;1.40;;;1.30;;
15287;SDS011;7745;48.708;9.026;2022-07-03T06:46:05;1.40;;;1.10;;
15287;SDS011;7745;48.708;9.026;2022-07-03T06:48:32;2.37;;;1.10;;
15287;SDS011;7745;48.708;9.026;2022-07-03T06:50:59;1.83;;;1.10;;
15287;SDS011;7745;48.708;9.026;2022-07-03T06:53:27;2.22;;;1.17;;
15287;SDS011;7745;48.708;9.026;2022-07-03T06:55:54;1.15;;;1.05;;
15287;SDS011;7745;48.708;9.026;2022-07-03T06:58:20;2.20;;;1.20;;
15287;SDS011;7745;48.708;9.026;2022-07-03T07:00:47;1.92;;;1.10;;
15287;SDS011;7745;48.708;9.026;2022-07-03T07:03:14;1.75;;;0.93;;
15287;SDS011;7745;48.708;9.026;2022-07-03T07:05:41;1.35;;;0.98;;
15287;SDS011;7745;48.708;9.026;2022-07-03T07:08:08;6.72;;;1.20;;
15287;SDS011;7745;48.708;9.026;2022-07-03T07:10:36;3.08;;;0.88;;
15287;SDS011;7745;48.708;9.026;2022-07-03T07:13:03;1.10;;;0.93;;
15287;SDS011;7745;48.708;9.026;2022-07-03T07:15:30;1.20;;;0.90;;
15287;SDS011;7745;48.708;9.026;2022-07-03T07:17:58;1.13;;;0.80;;
15287;SDS011;7745;48.708;9.026;2022-07-03T07:20:25;1.10;;;0.88;;
15287;SDS011;7745;48.708;9.026;2022-07-03T07:22:51;2.45;;;1.00;;
15287;SDS011;7745;48.708;9.026;2022-07-03T07:25:18;1.15;;;1.00;;
15287;SDS011;7745;48.708;9.026;2022-07-03T07:27:47;2.38;;;1.00;;
15287;SDS011;7745;48.708;9.026;2022-07-03T07:30:14;2.35;;;0.90;;
15287;SDS011;7745;48.708;9.026;2022-07-03T07:32:41;1.83;;;0.80;;
15287;SDS011;7745;48.708;9.026;2022-07-03T07:35:08;2.88;;;0.93;;
15287;SDS011;7745;48.708;9.026;2022-07-03T07:37:35;1.50;;;0.90;;
15287;SDS011;7745;48.708;9.026;2022-07-03T07:40:02;1.67;;;0.80;;
15287;SDS011;7745;48.708;9.026;2022-07-03T07:42:29;0.73;;;0.73;;
15287;SDS011;7745;48.708;9.026;2022-07-03T07:44:57;1.48;;;0.73;;
15287;SDS011;7745;48.708;9.026;2022-07-03T07:47:24;2.88;;;0.73;;
15287;SDS011;7745;48.708;9.026;2022-07-03T07:49:51;5.50;;;1.15;;
15287;SDS011;7745;48.708;9.026;2022-07-03T07:52:18;2.53;;;0.93;;
15287;SDS011;7745;48.708;9.026;2022-07-03T07:54:45;2.78;;;0.60;;
15287;SDS011;7745;48.708;9.026;2022-07-03T07:57:11;3.92;;;0.82;;
15287;SDS011;7745;48.708;9.026;2022-07-03T07:59:38;2.10;;;1.08;;
15287;SDS011;7745;48.708;9.026;2022-07-03T08:02:07;2.08;;;1.17;;
15287;SDS011;7745;48.708;9.026;2022-07-03T08:04:51;3.22;;;0.93;;
15287;SDS011;7745;48.708;9.026;2022-07-03T08:07:35;1.63;;;0.73;;
15287;SDS011;7745;48.708;9.026;2022-07-03T08:10:02;3.35;;;0.77;;
15287;SDS011;7745;48.708;9.026;2022-07-03T08:12:30;0.82;;;0.82;;
15287;SDS011;7745;48.708;9.026;2022-07-03T08:14:56;1.80;;;1.02;;
15287;SDS011;7745;48.708;9.026;2022-07-03T08:17:25;2.45;;;0.80;;
15287;SDS011;7745;48.708;9.026;2022-07-03T08:19:52;1.02;;;0.65;;
15287;SDS011;7745;48.708;9.026;2022-07-03T08:22:18;1.60;;;0.80;;
15287;SDS011;7745;48.708;9.026;2022-07-03T08:24:45;2.05;;;0.90;;
15287;SDS011;7745;48.708;9.026;2022-07-03T08:27:12;0.88;;;0.80;;
15287;SDS011;7745;48.708;9.026;2022-07-03T08:29:39;1.85;;;0.70;;
15287;SDS011;7745;48.708;9.026;2022-07-03T08:32:06;0.70;;;0.60;;
15287;SDS011;7745;48.708;9.026;2022-07-03T08:34:35;3.80;;;0.88;;
15287;SDS011;7745;48.708;9.026;2022-07-03T08:37:02;1.38;;;0.80;;
15287;SDS011;7745;48.708;9.026;2022-07-03T08:39:29;2.47;;;0.98;;
15287;SDS011;7745;48.708;9.026;2022-07-03T08:41:56;0.98;;;0.70;;
15287;SDS011;7745;48.708;9.026;2022-07-03T08:44:25;2.65;;;0.85;;
15287;SDS011;7745;48.708;9.026;2022-07-03T08:46:53;4.20;;;1.00;;
15287;SDS011;7745;48.708;9.026;2022-07-03T08:49:22;1.27;;;0.73;;
15287;SDS011;7745;48.708;9.026;2022-07-03T08:51:51;2.25;;;0.98;;
15287;SDS011;7745;48.708;9.026;2022-07-03T08:54:19;0.90;;;0.70;;
15287;SDS011;7745;48.708;9.026;2022-07-03T08:56:46;1.23;;;0.52;;
15287;SDS011;7745;48.708;9.026;2022-07-03T08:59:13;1.60;;;0.75;;
15287;SDS011;7745;48.708;9.026;2022-07-03T09:01:41;0.75;;;0.55;;
15287;SDS011;7745;48.708;9.026;2022-07-03T09:04:09;0.88;;;0.40;;
15287;SDS011;7745;48.708;9.026;2022-07-03T09:06:38;1.55;;;0.40;;
15287;SDS011;7745;48.708;9.026;2022-07-03T09:09:08;2.72;;;0.63;;
15287;SDS011;7745;48.708;9.026;2022-07-03T09:11:35;3.28;;;0.40;;
15287;SDS011;7745;48.708;9.026;2022-07-03T09:14:03;0.88;;;0.50;;
15287;SDS011;7745;48.708;9.026;2022-07-03T09:16:31;0.55;;;0.50;;
15287;SDS011;7745;48.708;9.026;2022-07-03T09:19:00;3.65;;;0.60;;
15287;SDS011;7745;48.708;9.026;2022-07-03T09:21:34;1.17;;;0.50;;
15287;SDS011;7745;48.708;9.026;2022-07-03T09:24:02;4.15;;;0.88;;
15287;SDS011;7745;48.708;9.026;2022-07-03T09:26:33;1.10;;;0.43;;
15287;SDS011;7745;48.708;9.026;2022-07-03T09:29:00;3.28;;;0.80;;
15287;SDS011;7745;48.708;9.026;2022-07-03T09:31:28;0.55;;;0.50;;
15287;SDS011;7745;48.708;9.026;2022-07-03T09:33:56;3.85;;;0.60;;
15287;SDS011;7745;48.708;9.026;2022-07-03T09:36:37;5.30;;;0.70;;
15287;SDS011;7745;48.708;9.026;2022-07-03T09:39:15;0.90;;;0.60;;
15287;SDS011;7745;48.708;9.026;2022-07-03T09:41:56;2.17;;;0.50;;
15287;SDS011;7745;48.708;9.026;2022-07-03T09:44:36;0.70;;;0.50;;
15287;SDS011;7745;48.708;9.026;2022-07-03T09:47:12;0.80;;;0.43;;
15287;SDS011;7745;48.708;9.026;2022-07-03T09:49:47;1.83;;;0.65;;
15287;SDS011;7745;48.708;9.026;2022-07-03T09:52:29;7.07;;;0.70;;
15287;SDS011;7745;48.708;9.026;2022-07-03T09:54:58;5.78;;;0.77;;
15287;SDS011;7745;48.708;9.026;2022-07-03T09:57:28;2.35;;;0.98;;
15287;SDS011;7745;48.708;9.026;2022-07-03T10:00:14;1.15;;;0.50;;
15287;SDS011;7745;48.708;9.026;2022-07-03T10:02:52;1.10;;;0.40;;
15287;SDS011;7745;48.708;9.026;2022-07-03T10:05:21;0.75;;;0.50;;
15287;SDS011;7745;48.708;9.026;2022-07-03T10:07:49;1.13;;;0.50;;
15287;SDS011;7745;48.708;9.026;2022-07-03T10:10:18;0.93;;;0.50;;
15287;SDS011;7745;48.708;9.026;2022-07-03T10:12:48;1.02;;;0.50;;
15287;SDS011;7745;48.708;9.026;2022-07-03T10:15:16;2.70;;;0.73;;
15287;SDS011;7745;48.708;9.026;2022-07-03T10:17:45;2.30;;;0.57;;
15287;SDS011;7745;48.708;9.026;2022-07-03T10:20:14;2.28;;;0.63;;
15287;SDS011;7745;48.708;9.026;2022-07-03T10:22:45;1.00;;;0.60;;
15287;SDS011;7745;48.708;9.026;2022-07-03T10:25:14;0.50;;;0.50;;
15287;SDS011;7745;48.708;9.026;2022-07-03T10:27:43;0.82;;;0.70;;
15287;SDS011;7745;48.708;9.026;2022-07-03T10:30:13;0.60;;;0.40;;
15287;SDS011;7745;48.708;9.026;2022-07-03T10:32:41;1.98;;;0.60;;
15287;SDS011;7745;48.708;9.026;2022-07-03T10:35:10;1.33;;;0.50;;
15287;SDS011;7745;48.708;9.026;2022-07-03T10:37:41;1.00;;;0.50;;
15287;SDS011;7745;48.708;9.026;2022-07-03T10:40:18;1.63;;;0.63;;
15287;SDS011;7745;48.708;9.026;2022-07-03T10:43:13;72.22;;;4.78;;
15287;SDS011;7745;48.708;9.026;2022-07-03T10:46:09;0.50;;;0.50;;
15287;SDS011;7745;48.708;9.026;2022-07-03T10:48:56;0.50;;;0.40;;
15287;SDS011;7745;48.708;9.026;2022-07-03T10:51:25;2.05;;;0.50;;
15287;SDS011;7745;48.708;9.026;2022-07-03T10:54:12;2.53;;;0.95;;
15287;SDS011;7745;48.708;9.026;2022-07-03T11:02:31;0.70;;;0.65;;
15287;SDS011;7745;48.708;9.026;2022-07-03T11:08:04;2.25;;;0.60;;
15287;SDS011;7745;48.708;9.026;2022-07-03T11:10:40;1.98;;;0.70;;
15287;SDS011;7745;48.708;9.026;2022-07-03T11:13:12;1.17;;;0.55;;
15287;SDS011;7745;48.708;9.026;2022-07-03T11:15:42;1.20;;;0.50;;
15287;SDS011;7745;48.708;9.026;2022-07-03T11:18:16;1.85;;;0.40;;
15287;SDS011;7745;48.708;9.026;2022-07-03T11:23:52;2.47;;;0.32;;
15287;SDS011;7745;48.708;9.026;2022-07-03T11:26:32;1.23;;;0.45;;
15287;SDS011;7745;48.708;9.026;2022-07-03T11:28:59;1.83;;;0.45;;
15287;SDS011;7745;48.708;9.026;2022-07-03T11:31:26;0.75;;;0.43;;
15287;SDS011;7745;48.708;9.026;2022-07-03T11:33:58;3.15;;;0.60;;
15287;SDS011;7745;48.708;9.026;2022-07-03T11:36:26;1.25;;;0.60;;
15287;SDS011;7745;48.708;9.026;2022-07-03T11:39:05;2.65;;;0.68;;
15287;SDS011;7745;48.708;9.026;2022-07-03T11:41:43;0.52;;;0.50;;
15287;SDS011;7745;48.708;9.026;2022-07-03T11:44:15;0.50;;;0.50;;
15287;SDS011;7745;48.708;9.026;2022-07-03T11:46:47;1.17;;;0.60;;
15287;SDS011;7745;48.708;9.026;2022-07-03T11:49:18;2.55;;;0.70;;
15287;SDS011;7745;48.708;9.026;2022-07-03T11:51:58;2.15;;;0.60;;
15287;SDS011;7745;48.708;9.026;2022-07-03T11:54:29;0.88;;;0.65;;
15287;SDS011;7745;48.708;9.026;2022-07-03T11:56:57;0.40;;;0.38;;
15287;SDS011;7745;48.708;9.026;2022-07-03T11:59:30;0.52;;;0.40;;
15287;SDS011;7745;48.708;9.026;2022-07-03T12:02:00;0.40;;;0.40;;
15287;SDS011;7745;48.708;9.026;2022-07-03T12:04:30;2.22;;;0.50;;
15287;SDS011;7745;48.708;9.026;2022-07-03T12:06:58;0.60;;;0.50;;
15287;SDS011;7745;48.708;9.026;2022-07-03T12:09:26;1.58;;;0.60;;
15287;SDS011;7745;48.708;9.026;2022-07-03T12:11:56;0.80;;;0.50;;
15287;SDS011;7745;48.708;9.026;2022-07-03T12:14:37;4.60;;;0.82;;
15287;SDS011;7745;48.708;9.026;2022-07-03T12:17:06;0.85;;;0.65;;
15287;SDS011;7745;48.708;9.026;2022-07-03T12:19:35;3.30;;;0.57;;
15287;SDS011;7745;48.708;9.026;2022-07-03T12:22:03;1.95;;;0.50;;
15287;SDS011;7745;48.708;9.026;2022-07-03T12:24:31;1.38;;;0.40;;
15287;SDS011;7745;48.708;9.026;2022-07-03T12:27:01;4.78;;;0.60;;
15287;SDS011;7745;48.708;9.026;2022-07-03T12:29:29;2.03;;;0.50;;
15287;SDS011;7745;48.708;9.026;2022-07-03T12:31:56;2.35;;;0.85;;
15287;SDS011;7745;48.708;9.026;2022-07-03T12:34:23;2.13;;;0.50;;
15287;SDS011;7745;48.708;9.026;2022-07-03T12:36:55;0.85;;;0.55;;
15287;SDS011;7745;48.708;9.026;2022-07-03T12:39:23;2.60;;;0.57;;
15287;SDS011;7745;48.708;9.026;2022-07-03T12:41:50;4.45;;;0.70;;
15287;SDS011;7745;48.708;9.026;2022-07-03T12:44:17;0.75;;;0.50;;
15287;SDS011;7745;48.708;9.026;2022-07-03T12:46:45;1.00;;;0.63;;
15287;SDS011;7745;48.708;9.026;2022-07-03T12:49:13;1.85;;;0.60;;
15287;SDS011;7745;48.708;9.026;2022-07-03T12:51:42;0.82;;;0.57;;
15287;SDS011;7745;48.708;9.026;2022-07-03T12:54:13;1.98;;;0.47;;
15287;SDS011;7745;48.708;9.026;2022-07-03T12:56:41;0.50;;;0.40;;
15287;SDS011;7745;48.708;9.026;2022-07-03T12:59:25;0.90;;;0.30;;
15287;SDS011;7745;48.708;9.026;2022-07-03T13:02:01;3.55;;;0.40;;
15287;SDS011;7745;48.708;9.026;2022-07-03T13:04:30;1.50;;;0.52;;
15287;SDS011;7745;48.708;9.026;2022-07-03T13:07:01;0.77;;;0.43;;
15287;SDS011;7745;48.708;9.026;2022-07-03T13:09:31;1.67;;;0.52;;
15287;SDS011;7745;48.708;9.026;2022-07-03T13:11:58;0.40;;;0.40;;
15287;SDS011;7745;48.708;9.026;2022-07-03T13:14:25;0.80;;;0.40;;
15287;SDS011;7745;48.708;9.026;2022-07-03T13:16:52;0.73;;;0.50;;
15287;SDS011;7745;48.708;9.026;2022-07-03T13:19:20;2.83;;;0.57;;
15287;SDS011;7745;48.708;9.026;2022-07-03T13:21:49;2.20;;;0.50;;
15287;SDS011;7745;48.708;9.026;2022-07-03T13:24:18;1.30;;;0.50;;
15287;SDS011;7745;48.708;9.026;2022-07-03T13:26:47;0.77;;;0.60;;
15287;SDS011;7745;48.708;9.026;2022-07-03T13:29:15;1.00;;;0.38;;
15287;SDS011;7745;48.708;9.026;2022-07-03T13:31:42;0.45;;;0.40;;
15287;SDS011;7745;48.708;9.026;2022-07-03T13:34:09;1.40;;;0.50;;
15287;SDS011;7745;48.708;9.026;2022-07-03T13:36:36;3.60;;;0.77;;
15287;SDS011;7745;48.708;9.026;2022-07-03T13:39:04;0.55;;;0.50;;
15287;SDS011;7745;48.708;9.026;2022-07-03T13:41:33;3.97;;;0.70;;
15287;SDS011;7745;48.708;9.026;2022-07-03T13:44:01;1.38;;;0.60;;
15287;SDS011;7745;48.708;9.026;2022-07-03T13:46:28;1.02;;;0.82;;
15287;SDS011;7745;48.708;9.026;2022-07-03T13:48:55;2.70;;;0.90;;
15287;SDS011;7745;48.708;9.026;2022-07-03T13:51:22;4.20;;;1.42;;
15287;SDS011;7745;48.708;9.026;2022-07-03T13:53:49;1.05;;;0.70;;
15287;SDS011;7745;48.708;9.026;2022-07-03T13:56:16;0.60;;;0.60;;
15287;SDS011;7745;48.708;9.026;2022-07-03T13:58:44;2.38;;;0.60;;
15287;SDS011;7745;48.708;9.026;2022-07-03T14:01:12;1.45;;;0.80;;
15287;SDS011;7745;48.708;9.026;2022-07-03T14:03:39;0.70;;;0.57;;
15287;SDS011;7745;48.708;9.026;2022-07-03T14:06:06;2.13;;;0.60;;
15287;SDS011;7745;48.708;9.026;2022-07-03T14:08:34;1.80;;;0.80;;
15287;SDS011;7745;48.708;9.026;2022-07-03T14:11:01;1.52;;;0.80;;
15287;SDS011;7745;48.708;9.026;2022-07-03T14:13:28;0.60;;;0.60;;
15287;SDS011;7745;48.708;9.026;2022-07-03T14:15:55;1.30;;;0.70;;
15287;SDS011;7745;48.708;9.026;2022-07-03T14:18:23;2.08;;;0.75;;
15287;SDS011;7745;48.708;9.026;2022-07-03T14:20:50;5.00;;;0.77;;
15287;SDS011;7745;48.708;9.026;2022-07-03T14:23:17;1.35;;;0.73;;
15287;SDS011;7745;48.708;9.026;2022-07-03T14:25:44;1.98;;;0.70;;
15287;SDS011;7745;48.708;9.026;2022-07-03T14:28:11;2.83;;;0.80;;
15287;SDS011;7745;48.708;9.026;2022-07-03T14:30:55;2.00;;;0.70;;
15287;SDS011;7745;48.708;9.026;2022-07-03T14:33:40;1.17;;;0.60;;
15287;SDS011;7745;48.708;9.026;2022-07-03T14:36:07;2.53;;;0.70;;
15287;SDS011;7745;48.708;9.026;2022-07-03T14:38:35;1.90;;;0.60;;
15287;SDS011;7745;48.708;9.026;2022-07-03T14:41:39;0.73;;;0.70;;
15287;SDS011;7745;48.708;9.026;2022-07-03T14:44:06;3.30;;;1.30;;
15287;SDS011;7745;48.708;9.026;2022-07-03T14:46:33;3.45;;;0.82;;
15287;SDS011;7745;48.708;9.026;2022-07-03T14:49:01;2.42;;;0.70;;
15287;SDS011;7745;48.708;9.026;2022-07-03T14:51:28;3.33;;;0.68;;
15287;SDS011;7745;48.708;9.026;2022-07-03T14:53:55;1.13;;;0.60;;
15287;SDS011;7745;48.708;9.026;2022-07-03T14:56:22;1.35;;;0.60;;
15287;SDS011;7745;48.708;9.026;2022-07-03T14:58:49;1.95;;;0.70;;
15287;SDS011;7745;48.708;9.026;2022-07-03T15:01:17;1.38;;;0.98;;
15287;SDS011;7745;48.708;9.026;2022-07-03T15:03:48;3.72;;;0.80;;
15287;SDS011;7745;48.708;9.026;2022-07-03T15:06:22;2.58;;;0.88;;
15287;SDS011;7745;48.708;9.026;2022-07-03T15:08:52;2.40;;;0.82;;
15287;SDS011;7745;48.708;9.026;2022-07-03T15:11:33;1.90;;;0.80;;
15287;SDS011;7745;48.708;9.026;2022-07-03T15:14:23;4.35;;;0.63;;
15287;SDS011;7745;48.708;9.026;2022-07-03T15:16:51;2.80;;;0.73;;
15287;SDS011;7745;48.708;9.026;2022-07-03T15:19:19;1.20;;;0.70;;
15287;SDS011;7745;48.708;9.026;2022-07-03T15:21:48;1.27;;;0.68;;
15287;SDS011;7745;48.708;9.026;2022-07-03T15:24:16;0.90;;;0.60;;
15287;SDS011;7745;48.708;9.026;2022-07-03T15:26:48;0.88;;;0.50;;
15287;SDS011;7745;48.708;9.026;2022-07-03T15:29:17;0.60;;;0.60;;